Time;durP1;ratioP1;P1;durP2;ratioP2;P2;SDS_P1;SDS_P2;PMS_P1;PMS_P2;Temp;Humidity;BMP_temperature;BMP_pressure;BME280_temperature;BME280_humidity;BME280_pressure;Samples;Min_cycle;Max_cycle;Signal;HPM_P1;HPM_P2
2023/06/16 00:01:41;;;;;;;11.37;7.90;;;15.20;72.50;;;;;;5049190;28;20120;-67
2023/06/16 00:04:08;;;;;;;12.23;8.50;;;15.20;72.60;;;;;;5025539;28;20480;-67
2023/06/16 00:06:36;;;;;;;12.43;8.63;;;15.10;73.00;;;;;;5064008;28;20071;-67
2023/06/16 00:09:01;;;;;;;9.40;8.33;;;15.10;74.60;;;;;;5047748;28;20329;-67
2023/06/16 00:11:28;;;;;;;10.90;8.13;;;15.10;74.80;;;;;;5047423;28;20805;-67
2023/06/16 00:13:55;;;;;;;12.30;8.23;;;15.00;75.90;;;;;;5048048;28;20094;-67
2023/06/16 00:16:22;;;;;;;10.83;7.80;;;14.90;76.10;;;;;;5047903;28;20290;-67
2023/06/16 00:18:52;;;;;;;9.30;7.87;;;14.80;76.20;;;;;;5031445;28;20291;-67
2023/06/16 00:21:25;;;;;;;9.70;7.93;;;14.70;76.40;;;;;;5046505;28;20367;-67
2023/06/16 00:23:51;;;;;;;12.67;8.50;;;14.60;75.80;;;;;;5047482;28;20279;-67
2023/06/16 00:26:17;;;;;;;11.10;8.87;;;14.40;75.80;;;;;;5049387;28;20282;-67
2023/06/16 00:28:43;;;;;;;12.20;8.10;;;14.30;76.10;;;;;;5051353;28;20378;-67
2023/06/16 00:31:08;;;;;;;10.37;8.30;;;14.30;77.00;;;;;;5051539;28;20049;-67
2023/06/16 00:33:34;;;;;;;10.70;8.23;;;14.20;76.90;;;;;;5034904;28;20033;-67
2023/06/16 00:36:00;;;;;;;11.03;7.90;;;14.10;77.20;;;;;;5033373;28;20538;-67
2023/06/16 00:38:25;;;;;;;11.20;8.83;;;14.10;77.40;;;;;;5050948;28;20047;-67
2023/06/16 00:40:51;;;;;;;11.83;9.03;;;14.10;77.50;;;;;;5050952;28;20157;-67
2023/06/16 00:43:17;;;;;;;12.90;9.03;;;14.00;78.30;;;;;;5050843;28;20070;-67
2023/06/16 00:45:43;;;;;;;11.77;9.50;;;13.90;79.20;;;;;;5034268;28;20420;-67
2023/06/16 00:48:09;;;;;;;12.27;10.00;;;13.80;79.70;;;;;;5060604;28;20037;-67
2023/06/16 00:50:35;;;;;;;11.87;9.87;;;13.70;81.00;;;;;;5048257;28;20040;-67
2023/06/16 00:53:01;;;;;;;13.60;10.03;;;13.50;81.50;;;;;;5050880;28;20669;-67
2023/06/16 00:55:28;;;;;;;12.77;10.00;;;13.40;80.80;;;;;;5046664;28;20453;-67
2023/06/16 00:57:54;;;;;;;16.38;11.35;;;13.40;80.50;;;;;;5050382;28;20428;-67
2023/06/16 01:00:21;;;;;;;13.63;11.53;;;13.30;83.90;;;;;;5049173;28;20037;-67
2023/06/16 01:02:47;;;;;;;14.63;11.90;;;13.30;83.60;;;;;;5067223;28;20357;-67
2023/06/16 01:05:20;;;;;;;14.80;12.27;;;13.30;82.20;;;;;;5047089;28;20052;-67
2023/06/16 01:07:48;;;;;;;14.30;12.18;;;13.30;82.80;;;;;;5049851;28;20382;-67
2023/06/16 01:10:37;;;;;;;14.93;11.90;;;13.30;83.60;;;;;;5033791;28;20041;-67
2023/06/16 01:13:30;;;;;;;14.25;10.73;;;13.30;84.10;;;;;;5049862;28;20287;-67
2023/06/16 01:15:59;;;;;;;13.25;11.80;;;13.30;83.40;;;;;;5062715;28;20044;-67
2023/06/16 01:18:27;;;;;;;15.75;11.57;;;13.20;83.30;;;;;;5067118;28;20055;-67
2023/06/16 01:21:16;;;;;;;16.02;12.55;;;13.20;86.10;;;;;;5049780;28;20048;-67
2023/06/16 01:23:53;;;;;;;14.82;12.48;;;13.10;86.10;;;;;;5049748;28;20120;-67
2023/06/16 01:26:22;;;;;;;14.40;11.70;;;13.00;86.30;;;;;;5021276;28;20153;-67
2023/06/16 01:28:49;;;;;;;14.38;12.13;;;12.90;86.30;;;;;;5049009;28;20304;-66
2023/06/16 01:31:16;;;;;;;15.52;13.23;;;12.70;86.30;;;;;;5049738;28;20049;-66
2023/06/16 01:33:43;;;;;;;18.55;13.90;;;12.60;85.90;;;;;;5049093;28;20671;-66
2023/06/16 01:36:09;;;;;;;16.77;14.25;;;12.50;86.50;;;;;;5065710;28;20127;-66
2023/06/16 01:38:35;;;;;;;17.13;14.07;;;12.50;87.40;;;;;;5065366;28;20428;-66
2023/06/16 01:41:02;;;;;;;16.25;13.18;;;12.50;88.30;;;;;;5046048;28;20386;-66
2023/06/16 01:43:29;;;;;;;15.73;13.88;;;12.40;88.60;;;;;;5045886;28;20052;-66
2023/06/16 01:45:56;;;;;;;19.45;14.05;;;12.40;89.20;;;;;;5030977;28;20044;-66
2023/06/16 01:48:23;;;;;;;15.93;13.80;;;12.30;88.30;;;;;;5044262;28;20087;-66
2023/06/16 01:50:49;;;;;;;16.20;13.90;;;12.30;89.10;;;;;;5031410;28;20038;-66
2023/06/16 01:53:15;;;;;;;17.05;14.70;;;12.30;89.40;;;;;;5045218;28;20703;-66
2023/06/16 01:55:48;;;;;;;15.97;14.27;;;12.20;90.00;;;;;;5048728;28;20507;-66
2023/06/16 01:58:16;;;;;;;17.25;13.40;;;12.20;90.20;;;;;;5046300;28;20041;-67
2023/06/16 02:00:47;;;;;;;15.13;13.10;;;12.10;90.50;;;;;;5048789;28;20041;-66
2023/06/16 02:03:53;;;;;;;16.98;14.75;;;12.10;91.30;;;;;;5049509;28;20546;-66
2023/06/16 02:06:26;;;;;;;14.80;13.20;;;12.00;91.80;;;;;;5043318;28;20394;-66
2023/06/16 02:08:55;;;;;;;15.65;14.05;;;12.00;91.90;;;;;;5048514;28;20518;-66
2023/06/16 02:11:21;;;;;;;13.98;11.63;;;11.90;91.20;;;;;;5065318;28;20044;-66
2023/06/16 02:13:48;;;;;;;15.00;12.43;;;11.90;90.30;;;;;;5048096;28;20040;-66
2023/06/16 02:16:14;;;;;;;15.98;12.95;;;11.90;90.50;;;;;;5057781;28;20651;-66
2023/06/16 02:18:40;;;;;;;15.50;13.75;;;11.90;91.10;;;;;;5044618;28;20037;-66
2023/06/16 02:21:06;;;;;;;16.70;13.13;;;12.00;90.70;;;;;;5047743;28;20063;-66
2023/06/16 02:23:31;;;;;;;17.10;12.17;;;12.00;90.50;;;;;;5045703;28;20155;-66
2023/06/16 02:25:57;;;;;;;14.47;12.30;;;12.00;90.00;;;;;;5047377;28;20440;-66
2023/06/16 02:28:23;;;;;;;14.87;12.93;;;12.00;89.90;;;;;;5048441;28;20497;-66
2023/06/16 02:30:49;;;;;;;18.80;13.87;;;12.00;90.10;;;;;;5049176;28;20088;-67
2023/06/16 02:33:15;;;;;;;14.07;12.17;;;12.00;90.00;;;;;;5047791;28;20041;-65
2023/06/16 02:35:41;;;;;;;17.58;14.30;;;12.00;90.00;;;;;;5047665;28;20431;-65
2023/06/16 02:38:07;;;;;;;19.07;14.33;;;12.00;90.80;;;;;;5050108;28;20053;-65
2023/06/16 02:40:33;;;;;;;15.30;13.63;;;12.00;91.50;;;;;;5048505;28;20369;-65
2023/06/16 02:43:00;;;;;;;17.77;14.43;;;12.00;91.30;;;;;;5064653;28;20501;-65
2023/06/16 02:45:26;;;;;;;16.95;14.40;;;12.00;91.10;;;;;;5048438;28;20083;-65
2023/06/16 02:47:51;;;;;;;17.10;13.00;;;12.00;92.50;;;;;;5047952;28;20041;-65
2023/06/16 02:50:17;;;;;;;15.57;13.87;;;12.00;94.00;;;;;;5047434;28;20288;-65
2023/06/16 02:52:43;;;;;;;14.97;12.83;;;12.00;94.30;;;;;;5045792;28;20087;-65
2023/06/16 02:55:10;;;;;;;14.80;13.20;;;11.90;92.80;;;;;;5048076;28;20291;-65
2023/06/16 02:57:35;;;;;;;15.73;13.48;;;11.90;92.90;;;;;;5048320;28;20067;-65
2023/06/16 03:00:04;;;;;;;18.43;15.03;;;11.80;93.50;;;;;;5060428;28;20052;-65
2023/06/16 03:02:30;;;;;;;19.17;14.82;;;11.80;92.70;;;;;;5044973;28;20057;-65
2023/06/16 03:04:55;;;;;;;16.47;13.50;;;11.80;92.90;;;;;;5047967;28;20041;-66
2023/06/16 03:07:23;;;;;;;15.50;13.10;;;11.70;92.50;;;;;;5047756;28;20045;-66
2023/06/16 03:09:48;;;;;;;15.77;13.63;;;11.70;92.30;;;;;;5047171;28;20049;-66
2023/06/16 03:12:14;;;;;;;18.90;13.93;;;11.70;92.50;;;;;;5047914;28;20043;-66
2023/06/16 03:14:41;;;;;;;18.63;16.67;;;11.80;93.20;;;;;;5028152;28;20040;-66
2023/06/16 03:17:07;;;;;;;20.27;17.27;;;11.80;93.20;;;;;;5041006;28;20060;-66
2023/06/16 03:19:32;;;;;;;22.37;17.73;;;11.90;93.90;;;;;;5048325;28;20124;-66
2023/06/16 03:21:58;;;;;;;17.87;15.97;;;12.00;94.70;;;;;;5047887;28;20048;-66
2023/06/16 03:24:24;;;;;;;20.80;17.63;;;12.10;94.50;;;;;;5047609;28;20100;-66
2023/06/16 03:26:51;;;;;;;21.90;19.43;;;12.10;93.20;;;;;;5047845;28;20083;-66
2023/06/16 03:29:17;;;;;;;20.00;17.58;;;12.30;95.10;;;;;;5047678;28;20257;-66
2023/06/16 03:31:43;;;;;;;22.27;18.10;;;12.30;95.00;;;;;;5048114;28;20045;-66
2023/06/16 03:34:09;;;;;;;25.03;19.73;;;12.40;94.20;;;;;;5062961;28;20051;-66
2023/06/16 03:36:39;;;;;;;22.58;19.67;;;12.40;94.70;;;;;;5047402;28;20037;-66
2023/06/16 03:39:05;;;;;;;21.48;18.63;;;12.50;95.10;;;;;;5044544;28;20041;-66
2023/06/16 03:41:33;;;;;;;23.75;20.40;;;12.60;96.00;;;;;;5028883;28;20405;-66
2023/06/16 03:43:58;;;;;;;21.88;19.60;;;12.60;95.90;;;;;;5059572;28;20041;-66
2023/06/16 03:46:24;;;;;;;21.70;19.40;;;12.60;97.00;;;;;;5046852;28;20047;-66
2023/06/16 03:48:50;;;;;;;22.60;19.43;;;12.70;97.10;;;;;;5047633;28;20049;-66
2023/06/16 03:51:16;;;;;;;23.17;18.80;;;12.70;96.40;;;;;;5048842;28;20072;-66
2023/06/16 03:53:42;;;;;;;22.90;20.23;;;12.80;96.60;;;;;;5041220;28;20067;-66
2023/06/16 03:56:08;;;;;;;23.73;19.63;;;12.80;96.40;;;;;;5046019;28;20044;-66
2023/06/16 03:58:34;;;;;;;25.37;21.90;;;12.90;97.60;;;;;;5046536;28;20048;-66
2023/06/16 04:01:00;;;;;;;28.00;23.73;;;12.90;96.40;;;;;;5051071;28;20048;-66
2023/06/16 04:03:26;;;;;;;28.03;23.90;;;12.90;97.10;;;;;;5051514;28;20048;-66
2023/06/16 04:05:53;;;;;;;28.47;23.77;;;13.00;97.10;;;;;;5051648;28;20052;-66
2023/06/16 04:08:19;;;;;;;28.77;25.23;;;13.00;98.10;;;;;;5050604;28;20095;-66
2023/06/16 04:10:45;;;;;;;28.50;24.27;;;13.10;98.60;;;;;;5067685;28;20459;-66
2023/06/16 04:13:10;;;;;;;32.80;26.03;;;13.10;98.10;;;;;;5040429;28;20119;-66
2023/06/16 04:15:36;;;;;;;32.73;27.53;;;13.20;97.40;;;;;;5035245;28;20460;-66
2023/06/16 04:18:02;;;;;;;31.47;26.97;;;13.20;96.80;;;;;;5051725;28;20041;-66
2023/06/16 04:20:28;;;;;;;31.60;26.03;;;13.30;98.20;;;;;;5046021;28;20449;-66
2023/06/16 04:22:53;;;;;;;31.23;26.63;;;13.40;98.20;;;;;;5051055;28;20504;-65
2023/06/16 04:25:21;;;;;;;36.10;30.20;;;13.40;98.10;;;;;;5050952;28;20499;-66
2023/06/16 04:27:49;;;;;;;35.83;29.50;;;13.50;98.50;;;;;;5050958;28;20045;-66
2023/06/16 04:30:20;;;;;;;31.73;27.23;;;13.60;98.00;;;;;;5034521;28;20041;-66
2023/06/16 04:32:46;;;;;;;30.67;26.45;;;13.70;98.30;;;;;;5051945;28;20037;-66
2023/06/16 04:35:11;;;;;;;30.77;26.63;;;13.80;99.50;;;;;;5033909;28;20048;-66
2023/06/16 04:37:37;;;;;;;26.57;23.67;;;14.20;99.90;;;;;;5035034;28;20065;-66
2023/06/16 04:40:05;;;;;;;24.07;21.57;;;14.90;99.10;;;;;;5049374;28;20051;-66
2023/06/16 04:42:30;;;;;;;26.90;24.03;;;15.60;94.70;;;;;;5035426;28;20515;-66
2023/06/16 04:44:57;;;;;;;30.60;25.73;;;16.30;92.00;;;;;;5051144;28;20288;-66
2023/06/16 04:47:23;;;;;;;32.17;27.03;;;16.90;90.60;;;;;;5034022;28;20120;-66
2023/06/16 04:49:49;;;;;;;29.97;26.70;;;17.40;88.80;;;;;;5050810;28;20319;-66
2023/06/16 04:52:15;;;;;;;32.10;26.10;;;17.90;85.80;;;;;;5043969;28;20049;-67
2023/06/16 04:54:41;;;;;;;28.83;25.90;;;18.30;84.60;;;;;;5051363;28;20770;-66
2023/06/16 04:57:07;;;;;;;27.83;24.83;;;18.80;81.70;;;;;;5051371;28;20075;-67
2023/06/16 04:59:33;;;;;;;27.70;24.90;;;19.20;80.00;;;;;;5033935;28;20108;-67
2023/06/16 05:02:00;;;;;;;28.17;25.17;;;19.70;78.00;;;;;;5034430;28;20351;-67
2023/06/16 05:04:25;;;;;;;25.83;23.03;;;20.10;76.30;;;;;;5034077;28;20279;-67
2023/06/16 05:06:51;;;;;;;27.73;24.77;;;20.50;74.60;;;;;;5049338;28;20294;-67
2023/06/16 05:09:17;;;;;;;26.07;22.67;;;20.80;73.30;;;;;;5057716;28;20045;-67
2023/06/16 05:11:42;;;;;;;24.23;21.83;;;21.20;72.00;;;;;;5046699;28;20317;-67
2023/06/16 05:14:09;;;;;;;24.97;22.30;;;21.60;71.00;;;;;;5052187;28;20040;-67
2023/06/16 05:16:35;;;;;;;23.67;21.27;;;21.70;69.50;;;;;;5046711;28;20102;-67
2023/06/16 05:19:00;;;;;;;23.33;20.80;;;21.90;68.50;;;;;;5066488;28;20284;-67
2023/06/16 05:21:26;;;;;;;22.93;20.53;;;22.20;67.00;;;;;;5060379;28;20500;-67
2023/06/16 05:23:53;;;;;;;22.30;19.93;;;22.30;66.40;;;;;;5049897;28;20074;-67
2023/06/16 05:26:22;;;;;;;20.60;18.50;;;22.40;66.30;;;;;;5049031;28;20504;-67
2023/06/16 05:28:48;;;;;;;21.63;19.33;;;22.70;65.50;;;;;;5049534;28;20669;-67
2023/06/16 05:31:14;;;;;;;21.00;17.67;;;22.80;64.90;;;;;;5045993;28;20371;-67
2023/06/16 05:33:40;;;;;;;23.23;19.10;;;22.90;64.30;;;;;;5048656;28;20598;-67
2023/06/16 05:36:05;;;;;;;21.40;19.10;;;22.90;64.30;;;;;;5048601;28;20048;-67
2023/06/16 05:38:31;;;;;;;19.67;17.63;;;23.00;63.80;;;;;;5049039;28;20044;-67
2023/06/16 05:40:57;;;;;;;20.97;16.97;;;23.20;63.80;;;;;;5049298;28;20056;-67
2023/06/16 05:43:23;;;;;;;18.50;16.60;;;23.50;63.00;;;;;;5049779;28;20053;-67
2023/06/16 05:45:48;;;;;;;20.73;17.23;;;23.60;62.40;;;;;;5032619;28;20079;-67
2023/06/16 05:48:14;;;;;;;18.50;16.50;;;23.80;61.40;;;;;;5049578;28;20065;-67
2023/06/16 05:50:40;;;;;;;18.23;16.40;;;23.80;61.40;;;;;;5031401;28;20049;-67
2023/06/16 05:53:06;;;;;;;18.53;16.57;;;23.90;60.60;;;;;;5051798;28;20033;-67
2023/06/16 05:55:31;;;;;;;18.30;16.43;;;23.70;60.60;;;;;;5051799;28;20095;-67
2023/06/16 05:57:57;;;;;;;18.00;16.07;;;23.10;61.50;;;;;;5051023;28;20071;-67
2023/06/16 06:00:23;;;;;;;18.33;15.40;;;22.60;62.50;;;;;;5050776;28;20036;-67
2023/06/16 06:02:49;;;;;;;16.57;14.97;;;22.50;63.60;;;;;;5050106;28;20109;-67
2023/06/16 06:05:15;;;;;;;17.43;15.73;;;22.40;64.00;;;;;;5066139;28;20068;-67
2023/06/16 06:07:41;;;;;;;16.23;14.67;;;22.90;63.40;;;;;;5046871;28;20479;-67
2023/06/16 06:10:07;;;;;;;17.13;15.43;;;23.30;62.20;;;;;;5050729;28;20064;-67
2023/06/16 06:12:33;;;;;;;19.23;15.70;;;23.60;61.20;;;;;;5050755;28;20052;-67
2023/06/16 06:14:58;;;;;;;19.93;17.80;;;23.70;60.70;;;;;;5034043;28;20041;-67
2023/06/16 06:17:24;;;;;;;19.23;16.83;;;23.80;60.90;;;;;;5051139;28;20397;-67
2023/06/16 06:19:50;;;;;;;19.30;17.17;;;23.90;60.70;;;;;;5050864;28;20045;-67
2023/06/16 06:22:15;;;;;;;20.57;16.43;;;23.80;61.10;;;;;;5045919;28;20099;-67
2023/06/16 06:24:41;;;;;;;17.60;15.40;;;23.70;61.40;;;;;;5045697;28;20043;-67
2023/06/16 06:27:10;;;;;;;20.63;16.57;;;23.70;61.70;;;;;;5028907;28;20074;-67
2023/06/16 06:29:36;;;;;;;17.77;16.00;;;23.80;61.30;;;;;;5050331;28;20586;-67
2023/06/16 06:32:07;;;;;;;17.43;15.60;;;23.90;60.40;;;;;;5049421;28;20127;-67
2023/06/16 06:34:34;;;;;;;19.50;15.73;;;24.00;60.10;;;;;;5048886;28;20048;-67
2023/06/16 06:37:00;;;;;;;19.33;16.30;;;24.10;60.00;;;;;;5063744;28;20401;-67
2023/06/16 06:39:26;;;;;;;18.47;16.17;;;24.20;58.90;;;;;;5066626;28;20043;-67
2023/06/16 06:41:51;;;;;;;18.10;16.27;;;24.10;58.80;;;;;;5049972;28;20444;-67
2023/06/16 06:44:17;;;;;;;18.20;16.30;;;24.20;58.60;;;;;;5050388;28;20032;-67
2023/06/16 06:46:43;;;;;;;16.07;14.47;;;24.10;58.80;;;;;;5050166;28;20045;-67
2023/06/16 06:49:08;;;;;;;16.70;14.60;;;23.90;59.20;;;;;;5052374;28;20040;-67
2023/06/16 06:51:35;;;;;;;15.00;13.47;;;23.80;58.50;;;;;;5048615;28;20432;-67
2023/06/16 06:54:01;;;;;;;13.83;12.43;;;23.70;58.60;;;;;;5064715;28;20040;-67
2023/06/16 06:56:27;;;;;;;17.07;11.77;;;23.60;58.40;;;;;;5049022;28;20040;-67
2023/06/16 06:58:53;;;;;;;12.50;11.07;;;23.50;58.90;;;;;;5032706;28;20098;-67
2023/06/16 07:01:18;;;;;;;13.37;10.90;;;23.30;58.40;;;;;;5049277;28;20055;-67
2023/06/16 07:03:44;;;;;;;12.60;9.63;;;23.20;58.40;;;;;;5049634;28;20041;-67
2023/06/16 07:06:10;;;;;;;11.00;9.80;;;23.10;58.90;;;;;;5048469;28;20061;-67
2023/06/16 07:08:35;;;;;;;10.80;9.70;;;23.00;59.10;;;;;;5048784;28;20413;-67
2023/06/16 07:11:01;;;;;;;11.57;10.10;;;22.90;58.60;;;;;;5048336;28;20048;-67
2023/06/16 07:13:27;;;;;;;11.47;9.03;;;22.70;59.90;;;;;;5048556;28;20124;-67
2023/06/16 07:15:53;;;;;;;8.93;8.03;;;22.60;60.00;;;;;;5065382;28;20405;-67
2023/06/16 07:18:19;;;;;;;11.20;9.37;;;22.40;59.80;;;;;;5048684;28;20484;-67
2023/06/16 07:20:44;;;;;;;8.77;7.53;;;22.20;60.30;;;;;;5047785;28;20041;-67
2023/06/16 07:23:10;;;;;;;10.77;8.80;;;22.20;59.90;;;;;;5044278;28;20046;-67
2023/06/16 07:25:36;;;;;;;9.87;8.77;;;22.10;59.60;;;;;;5062578;28;20072;-67
2023/06/16 07:28:04;;;;;;;9.43;7.13;;;22.00;60.50;;;;;;5031957;28;20071;-67
2023/06/16 07:30:30;;;;;;;10.37;7.10;;;21.90;60.20;;;;;;5042571;28;20594;-67
2023/06/16 07:32:56;;;;;;;7.27;6.57;;;21.90;59.20;;;;;;5049484;28;20074;-67
2023/06/16 07:35:22;;;;;;;7.63;6.50;;;21.90;59.70;;;;;;5047598;28;20059;-67
2023/06/16 07:37:47;;;;;;;6.73;5.97;;;21.90;58.70;;;;;;5048854;28;20041;-67
2023/06/16 07:40:16;;;;;;;9.07;6.10;;;22.00;58.50;;;;;;5052692;28;20056;-67
2023/06/16 07:42:45;;;;;;;6.53;5.67;;;22.00;58.50;;;;;;5051854;28;20489;-67
2023/06/16 07:45:12;;;;;;;8.47;5.70;;;22.10;57.80;;;;;;5051524;28;20044;-67
2023/06/16 07:47:41;;;;;;;6.37;5.23;;;22.10;56.90;;;;;;5047715;28;20145;-67
2023/06/16 07:50:08;;;;;;;7.63;5.30;;;22.20;56.80;;;;;;5051832;28;20119;-67
2023/06/16 07:52:35;;;;;;;7.73;4.90;;;22.20;56.70;;;;;;5050800;28;20098;-67
2023/06/16 07:55:00;;;;;;;8.97;5.57;;;22.40;55.70;;;;;;5051522;28;20072;-67
2023/06/16 07:57:26;;;;;;;7.43;5.27;;;22.30;54.80;;;;;;5051954;28;20064;-67
2023/06/16 07:59:52;;;;;;;13.73;4.80;;;22.40;54.60;;;;;;5051321;28;20056;-67
2023/06/16 08:02:17;;;;;;;13.97;4.77;;;22.30;54.20;;;;;;5051710;28;20041;-67
2023/06/16 08:04:43;;;;;;;12.93;4.87;;;22.40;54.40;;;;;;5051873;28;20087;-67
2023/06/16 08:07:09;;;;;;;6.40;4.33;;;22.40;53.80;;;;;;5051445;28;20049;-67
2023/06/16 08:09:34;;;;;;;6.10;4.20;;;22.50;53.90;;;;;;5052151;28;20048;-67
2023/06/16 08:12:00;;;;;;;7.43;4.70;;;22.60;53.50;;;;;;5051842;28;20033;-67
2023/06/16 08:14:27;;;;;;;7.37;4.83;;;22.80;53.00;;;;;;5051385;28;20068;-67
2023/06/16 08:16:53;;;;;;;5.50;4.43;;;22.90;52.60;;;;;;5051527;28;20037;-67
2023/06/16 08:19:19;;;;;;;9.53;4.40;;;22.80;52.40;;;;;;5047083;28;20126;-67
2023/06/16 08:21:44;;;;;;;5.50;4.10;;;22.90;50.80;;;;;;5034435;28;20047;-67
2023/06/16 08:24:10;;;;;;;5.10;4.57;;;22.90;50.50;;;;;;5051317;28;20076;-67
2023/06/16 08:26:36;;;;;;;5.60;4.00;;;22.90;50.20;;;;;;5051909;28;20067;-67
2023/06/16 08:29:03;;;;;;;4.73;3.70;;;23.00;50.30;;;;;;5067778;28;20049;-67
2023/06/16 08:31:29;;;;;;;6.20;3.40;;;23.00;50.50;;;;;;5033514;28;20029;-66
2023/06/16 08:33:55;;;;;;;4.93;2.93;;;23.00;48.00;;;;;;5051358;28;20040;-67
2023/06/16 08:36:23;;;;;;;6.30;3.07;;;23.10;48.00;;;;;;5051515;28;20459;-68
2023/06/16 08:38:48;;;;;;;10.07;3.10;;;23.10;47.40;;;;;;5063765;28;20199;-68
2023/06/16 08:41:18;;;;;;;4.73;2.53;;;23.10;46.90;;;;;;5049361;28;20507;-68
2023/06/16 08:43:52;;;;;;;4.57;3.33;;;23.10;44.90;;;;;;5050692;28;20151;-67
2023/06/16 08:46:18;;;;;;;6.65;3.38;;;23.10;46.50;;;;;;5051042;28;20473;-67
2023/06/16 08:48:44;;;;;;;5.07;3.00;;;23.20;47.10;;;;;;5050863;28;20107;-68
2023/06/16 08:51:13;;;;;;;4.90;3.23;;;23.20;47.10;;;;;;5052019;28;20044;-68
2023/06/16 08:53:40;;;;;;;4.87;3.33;;;23.30;45.10;;;;;;5050367;28;20063;-67
2023/06/16 08:56:07;;;;;;;5.00;2.90;;;23.30;45.80;;;;;;5061050;28;20029;-67
2023/06/16 08:58:37;;;;;;;4.30;3.10;;;23.30;45.40;;;;;;5033582;28;20083;-67
2023/06/16 09:01:04;;;;;;;7.53;3.07;;;23.40;45.00;;;;;;5049391;28;20511;-68
2023/06/16 09:03:33;;;;;;;2.60;2.10;;;23.40;44.90;;;;;;5030320;28;20037;-68
2023/06/16 09:06:00;;;;;;;3.87;2.30;;;23.40;44.80;;;;;;5047570;28;20037;-68
2023/06/16 09:08:27;;;;;;;4.17;2.13;;;23.50;44.00;;;;;;5047522;28;20505;-68
2023/06/16 09:10:55;;;;;;;3.40;2.40;;;23.30;42.60;;;;;;5031836;28;20044;-68
2023/06/16 09:13:22;;;;;;;3.77;2.30;;;23.30;41.50;;;;;;5048523;28;20545;-68
2023/06/16 09:15:49;;;;;;;4.30;2.33;;;23.30;41.80;;;;;;5047600;28;20401;-68
2023/06/16 09:18:15;;;;;;;4.53;2.30;;;23.40;41.90;;;;;;5046565;28;20517;-68
2023/06/16 09:20:51;;;;;;;2.37;2.00;;;23.40;42.90;;;;;;5048240;28;20476;-68
2023/06/16 09:23:27;;;;;;;7.30;2.40;;;23.50;42.40;;;;;;5064692;28;20064;-68
2023/06/16 09:25:53;;;;;;;3.23;1.97;;;23.50;42.50;;;;;;5046798;28;20135;-68
2023/06/16 09:28:19;;;;;;;3.73;2.20;;;23.50;42.40;;;;;;5049597;28;20186;-68
2023/06/16 09:30:44;;;;;;;3.40;1.77;;;23.60;42.80;;;;;;5048599;28;20045;-68
2023/06/16 09:33:11;;;;;;;5.27;2.10;;;23.80;41.60;;;;;;5048507;28;20037;-68
2023/06/16 09:35:40;;;;;;;4.73;2.00;;;23.80;40.90;;;;;;5048210;28;20035;-68
2023/06/16 09:38:06;;;;;;;3.47;1.80;;;23.90;41.20;;;;;;5050152;28;20041;-68
2023/06/16 09:40:33;;;;;;;3.33;1.70;;;23.90;40.80;;;;;;5031496;28;20040;-68
2023/06/16 09:43:01;;;;;;;3.67;1.80;;;23.90;40.30;;;;;;5048284;28;20562;-68
2023/06/16 09:45:30;;;;;;;3.07;1.73;;;23.90;39.40;;;;;;5047446;28;20828;-68
2023/06/16 09:47:56;;;;;;;3.27;1.70;;;23.90;39.90;;;;;;5047848;28;20492;-68
2023/06/16 09:50:25;;;;;;;3.53;1.80;;;23.80;39.90;;;;;;5048310;28;20515;-68
2023/06/16 09:52:53;;;;;;;3.73;1.70;;;23.80;40.60;;;;;;5058022;28;20090;-68
2023/06/16 09:55:26;;;;;;;4.60;2.00;;;23.80;40.90;;;;;;5048766;28;20558;-68
2023/06/16 09:57:51;;;;;;;2.40;1.83;;;23.90;40.00;;;;;;5047225;28;20126;-68
2023/06/16 10:00:20;;;;;;;3.03;1.87;;;24.10;39.90;;;;;;5036744;28;20044;-68
2023/06/16 10:02:48;;;;;;;3.00;1.70;;;24.20;40.00;;;;;;5046788;28;20049;-68
2023/06/16 10:05:18;;;;;;;3.73;1.97;;;24.20;40.90;;;;;;5048567;28;20048;-68
2023/06/16 10:07:49;;;;;;;3.57;1.83;;;24.30;40.20;;;;;;5048007;28;20506;-68
2023/06/16 10:10:16;;;;;;;3.60;2.00;;;24.30;40.20;;;;;;5063370;28;20047;-68
2023/06/16 10:12:48;;;;;;;3.17;2.20;;;24.20;39.10;;;;;;5047931;28;20036;-68
2023/06/16 10:15:37;;;;;;;4.83;2.30;;;24.10;39.60;;;;;;5046200;28;20052;-68
2023/06/16 10:18:06;;;;;;;4.43;2.73;;;24.00;39.80;;;;;;5028485;28;20446;-68
2023/06/16 10:20:32;;;;;;;3.73;2.33;;;24.10;40.00;;;;;;5047414;28;20496;-68
2023/06/16 10:23:02;;;;;;;3.33;2.00;;;24.10;38.70;;;;;;5047618;28;20524;-68
2023/06/16 10:25:29;;;;;;;3.93;1.97;;;24.10;38.70;;;;;;5042804;28;20099;-68
2023/06/16 10:27:56;;;;;;;2.90;2.10;;;24.10;38.40;;;;;;5047809;28;20049;-68
2023/06/16 10:30:23;;;;;;;4.93;2.23;;;24.10;38.50;;;;;;5047044;28;20048;-68
2023/06/16 10:32:50;;;;;;;4.50;2.20;;;24.10;38.00;;;;;;5031391;28;20041;-68
2023/06/16 10:35:17;;;;;;;3.53;1.70;;;24.00;38.70;;;;;;5045440;28;20519;-67
2023/06/16 10:37:47;;;;;;;3.70;1.90;;;23.90;39.10;;;;;;5032221;28;20083;-66
2023/06/16 10:40:14;;;;;;;4.00;2.07;;;23.90;39.60;;;;;;5047918;28;20049;-67
2023/06/16 10:42:40;;;;;;;3.70;2.17;;;23.80;40.30;;;;;;5048921;28;20055;-66
2023/06/16 10:45:27;;;;;;;4.17;2.10;;;23.90;39.90;;;;;;5048491;28;20033;-67
2023/06/16 10:48:01;;;;;;;4.67;2.40;;;24.10;40.30;;;;;;5049168;28;20055;-68
2023/06/16 10:50:39;;;;;;;4.15;1.88;;;24.10;40.10;;;;;;5037055;28;20048;-68
2023/06/16 10:53:16;;;;;;;4.57;2.30;;;24.20;40.40;;;;;;5048683;28;20041;-67
2023/06/16 10:55:44;;;;;;;4.50;1.80;;;24.30;39.90;;;;;;5065266;28;20543;-67
2023/06/16 10:58:16;;;;;;;4.30;2.50;;;24.40;39.40;;;;;;5049737;28;20128;-67
2023/06/16 11:01:01;;;;;;;4.37;2.23;;;24.50;40.60;;;;;;5036216;28;20168;-68
2023/06/16 11:03:44;;;;;;;2.80;2.10;;;24.60;40.30;;;;;;5045068;28;20112;-68
2023/06/16 11:06:11;;;;;;;4.93;2.43;;;24.60;39.70;;;;;;5062198;28;20075;-68
2023/06/16 11:08:55;;;;;;;4.63;1.90;;;24.60;40.10;;;;;;5048379;28;20170;-68
2023/06/16 11:11:30;;;;;;;4.75;2.15;;;24.70;40.50;;;;;;5048067;28;20045;-68
2023/06/16 11:13:56;;;;;;;4.73;2.27;;;24.70;40.80;;;;;;5048444;28;20064;-68
2023/06/16 11:16:22;;;;;;;3.63;2.20;;;24.50;40.60;;;;;;5045071;28;20037;-68
2023/06/16 11:18:50;;;;;;;3.13;2.23;;;24.50;41.70;;;;;;5046923;28;20582;-68
2023/06/16 11:21:16;;;;;;;4.97;2.13;;;24.50;40.00;;;;;;5031008;28;20505;-68
2023/06/16 11:23:44;;;;;;;5.10;2.00;;;24.50;40.30;;;;;;5032056;28;20051;-68
2023/06/16 11:26:13;;;;;;;5.17;2.30;;;24.60;39.80;;;;;;5045794;28;20504;-68
2023/06/16 11:28:41;;;;;;;3.70;2.27;;;24.80;39.50;;;;;;5047626;28;20233;-68
2023/06/16 11:31:08;;;;;;;3.40;2.10;;;25.00;40.20;;;;;;5048744;28;20530;-68
2023/06/16 11:33:35;;;;;;;2.80;2.17;;;25.10;39.20;;;;;;5031617;28;20029;-68
2023/06/16 11:36:20;;;;;;;4.00;2.23;;;25.20;38.90;;;;;;5032079;28;20079;-68
2023/06/16 11:38:49;;;;;;;4.67;2.27;;;25.20;37.90;;;;;;5032001;28;20048;-68
2023/06/16 11:41:27;;;;;;;6.07;2.13;;;25.10;38.40;;;;;;5032256;28;20084;-68
2023/06/16 11:43:53;;;;;;;6.80;2.37;;;25.10;38.10;;;;;;5048197;28;20512;-68
2023/06/16 11:46:24;;;;;;;2.87;2.27;;;25.00;39.10;;;;;;5048603;28;20121;-68
2023/06/16 11:48:51;;;;;;;4.23;2.23;;;24.90;39.20;;;;;;5047944;28;20037;-68
2023/06/16 11:51:18;;;;;;;5.67;2.53;;;25.00;39.00;;;;;;5048689;28;20396;-68
2023/06/16 11:53:45;;;;;;;3.53;2.17;;;25.00;38.80;;;;;;5047350;28;20089;-68
2023/06/16 11:56:16;;;;;;;3.80;2.20;;;25.00;38.70;;;;;;5047915;28;20052;-68
2023/06/16 11:58:44;;;;;;;3.53;2.00;;;25.10;37.70;;;;;;5047866;28;20045;-68
2023/06/16 12:01:15;;;;;;;2.37;2.10;;;25.00;37.70;;;;;;5031583;28;20037;-68
2023/06/16 12:03:43;;;;;;;2.90;2.03;;;25.10;38.00;;;;;;5048302;28;20459;-68
2023/06/16 12:06:10;;;;;;;2.37;1.80;;;25.20;37.80;;;;;;5048537;28;20591;-68
2023/06/16 12:08:37;;;;;;;3.60;1.60;;;25.20;37.40;;;;;;5045577;28;20382;-68
2023/06/16 12:11:03;;;;;;;4.57;2.00;;;25.20;37.20;;;;;;5050656;28;20099;-68
2023/06/16 12:13:33;;;;;;;3.37;1.70;;;25.30;37.20;;;;;;5033495;28;20497;-68
2023/06/16 12:16:01;;;;;;;4.73;1.87;;;25.30;37.40;;;;;;5049076;28;20045;-68
2023/06/16 12:18:26;;;;;;;3.10;2.10;;;25.40;37.30;;;;;;5031981;28;20033;-68
2023/06/16 12:20:52;;;;;;;2.63;2.13;;;25.50;36.90;;;;;;5034924;28;20087;-68
2023/06/16 12:23:18;;;;;;;3.70;2.00;;;25.60;36.90;;;;;;5038372;28;20036;-69
2023/06/16 12:25:48;;;;;;;4.23;1.87;;;25.70;37.40;;;;;;5048817;28;20512;-68
2023/06/16 12:28:21;;;;;;;5.60;1.97;;;25.80;37.30;;;;;;5055366;28;20424;-68
2023/06/16 12:30:47;;;;;;;3.30;2.13;;;26.00;36.00;;;;;;5037151;28;20041;-68
2023/06/16 12:33:13;;;;;;;3.17;1.80;;;26.00;36.80;;;;;;5054183;28;20037;-68
2023/06/16 12:35:40;;;;;;;3.90;1.70;;;25.90;37.20;;;;;;5054481;28;20166;-68
2023/06/16 12:38:06;;;;;;;5.47;2.30;;;25.90;37.20;;;;;;5056633;28;20718;-68